sensor_id;sensor_type;location;lat;lon;timestamp;pressure;altitude;pressure_sealevel;temperature;humidity
15050;BME280;7622;42.724;23.250;2024-02-04T00:00:57;95003.16;;;7.24;100.00
15050;BME280;7622;42.724;23.250;2024-02-04T00:03:24;95010.41;;;7.19;100.00
15050;BME280;7622;42.724;23.250;2024-02-04T00:05:50;95011.47;;;7.17;100.00
15050;BME280;7622;42.724;23.250;2024-02-04T00:08:17;95010.41;;;7.19;100.00
15050;BME280;7622;42.724;23.250;2024-02-04T00:10:44;95015.34;;;7.22;100.00
15050;BME280;7622;42.724;23.250;2024-02-04T00:13:11;95004.78;;;7.25;100.00
15050;BME280;7622;42.724;23.250;2024-02-04T00:15:37;95017.25;;;7.31;100.00
15050;BME280;7622;42.724;23.250;2024-02-04T00:18:06;95010.19;;;7.33;100.00
15050;BME280;7622;42.724;23.250;2024-02-04T00:20:35;95005.00;;;7.22;100.00
15050;BME280;7622;42.724;23.250;2024-02-04T00:23:02;95011.00;;;7.23;100.00
15050;BME280;7622;42.724;23.250;2024-02-04T00:25:28;95011.00;;;7.34;100.00
15050;BME280;7622;42.724;23.250;2024-02-04T00:27:55;95012.03;;;7.20;100.00
15050;BME280;7622;42.724;23.250;2024-02-04T00:30:22;95016.38;;;7.20;100.00
15050;BME280;7622;42.724;23.250;2024-02-04T00:32:49;95010.31;;;7.32;100.00
15050;BME280;7622;42.724;23.250;2024-02-04T00:35:17;95014.41;;;7.34;100.00
15050;BME280;7622;42.724;23.250;2024-02-04T00:37:43;95007.84;;;7.41;100.00
15050;BME280;7622;42.724;23.250;2024-02-04T00:40:11;95013.13;;;7.40;100.00
15050;BME280;7622;42.724;23.250;2024-02-04T00:42:38;95014.47;;;7.45;100.00
15050;BME280;7622;42.724;23.250;2024-02-04T00:45:05;95010.44;;;7.41;100.00
15050;BME280;7622;42.724;23.250;2024-02-04T00:47:32;95012.81;;;7.44;100.00
15050;BME280;7622;42.724;23.250;2024-02-04T00:49:59;95008.09;;;7.49;100.00
15050;BME280;7622;42.724;23.250;2024-02-04T00:52:27;95004.69;;;7.38;100.00
15050;BME280;7622;42.724;23.250;2024-02-04T00:54:53;95012.56;;;7.47;100.00
15050;BME280;7622;42.724;23.250;2024-02-04T00:57:20;94999.88;;;7.44;100.00
15050;BME280;7622;42.724;23.250;2024-02-04T00:59:47;95004.13;;;7.45;100.00
15050;BME280;7622;42.724;23.250;2024-02-04T01:02:15;95009.75;;;7.39;100.00
15050;BME280;7622;42.724;23.250;2024-02-04T01:04:42;95004.34;;;7.31;100.00
15050;BME280;7622;42.724;23.250;2024-02-04T01:07:09;95003.97;;;7.47;100.00
15050;BME280;7622;42.724;23.250;2024-02-04T01:09:37;95006.91;;;7.42;100.00
15050;BME280;7622;42.724;23.250;2024-02-04T01:12:04;95016.53;;;7.40;100.00
15050;BME280;7622;42.724;23.250;2024-02-04T01:14:31;95005.72;;;7.35;100.00
15050;BME280;7622;42.724;23.250;2024-02-04T01:16:57;95007.50;;;7.35;100.00
15050;BME280;7622;42.724;23.250;2024-02-04T01:19:24;94944.66;;;7.12;100.00
15050;BME280;7622;42.724;23.250;2024-02-04T01:21:51;95008.81;;;7.51;100.00
15050;BME280;7622;42.724;23.250;2024-02-04T01:24:18;95002.44;;;7.33;100.00
15050;BME280;7622;42.724;23.250;2024-02-04T01:26:46;95002.56;;;7.32;100.00
15050;BME280;7622;42.724;23.250;2024-02-04T01:29:12;94991.16;;;7.23;100.00
15050;BME280;7622;42.724;23.250;2024-02-04T01:31:39;94994.69;;;7.22;100.00
15050;BME280;7622;42.724;23.250;2024-02-04T01:34:06;94993.28;;;7.18;100.00
15050;BME280;7622;42.724;23.250;2024-02-04T01:36:32;94983.25;;;7.13;100.00
15050;BME280;7622;42.724;23.250;2024-02-04T01:38:59;94986.56;;;7.27;100.00
15050;BME280;7622;42.724;23.250;2024-02-04T01:41:26;94989.03;;;7.28;100.00
15050;BME280;7622;42.724;23.250;2024-02-04T01:43:54;94980.72;;;7.25;100.00
15050;BME280;7622;42.724;23.250;2024-02-04T01:46:21;94962.34;;;7.05;100.00
15050;BME280;7622;42.724;23.250;2024-02-04T01:48:49;94982.34;;;7.15;100.00
15050;BME280;7622;42.724;23.250;2024-02-04T01:51:17;94977.31;;;7.24;100.00
15050;BME280;7622;42.724;23.250;2024-02-04T01:53:46;94979.69;;;7.38;100.00
15050;BME280;7622;42.724;23.250;2024-02-04T01:56:13;94967.91;;;7.34;100.00
15050;BME280;7622;42.724;23.250;2024-02-04T01:58:40;94981.19;;;7.41;100.00
15050;BME280;7622;42.724;23.250;2024-02-04T02:01:08;94980.25;;;7.42;100.00
15050;BME280;7622;42.724;23.250;2024-02-04T02:03:35;94974.16;;;7.32;100.00
15050;BME280;7622;42.724;23.250;2024-02-04T02:06:03;94971.34;;;7.46;100.00
15050;BME280;7622;42.724;23.250;2024-02-04T02:08:30;94973.34;;;7.54;100.00
15050;BME280;7622;42.724;23.250;2024-02-04T02:11:04;94969.56;;;7.58;100.00
15050;BME280;7622;42.724;23.250;2024-02-04T02:13:34;94973.56;;;7.50;100.00
15050;BME280;7622;42.724;23.250;2024-02-04T02:16:09;94974.50;;;7.49;100.00
15050;BME280;7622;42.724;23.250;2024-02-04T02:18:44;94970.63;;;7.66;100.00
15050;BME280;7622;42.724;23.250;2024-02-04T02:21:29;94964.28;;;7.59;100.00
15050;BME280;7622;42.724;23.250;2024-02-04T02:24:06;94970.38;;;7.69;100.00
15050;BME280;7622;42.724;23.250;2024-02-04T02:26:37;94970.28;;;7.71;100.00
15050;BME280;7622;42.724;23.250;2024-02-04T02:29:04;94966.28;;;7.56;100.00
15050;BME280;7622;42.724;23.250;2024-02-04T02:31:33;94965.59;;;7.65;100.00
15050;BME280;7622;42.724;23.250;2024-02-04T02:34:01;94963.44;;;7.70;100.00
15050;BME280;7622;42.724;23.250;2024-02-04T02:36:30;94965.31;;;7.68;100.00
15050;BME280;7622;42.724;23.250;2024-02-04T02:39:03;94957.22;;;7.72;100.00
15050;BME280;7622;42.724;23.250;2024-02-04T02:41:35;94959.91;;;7.93;100.00
15050;BME280;7622;42.724;23.250;2024-02-04T02:44:05;94963.88;;;7.97;100.00
15050;BME280;7622;42.724;23.250;2024-02-04T02:46:31;94956.03;;;7.87;100.00
15050;BME280;7622;42.724;23.250;2024-02-04T02:48:58;94963.22;;;7.95;100.00
15050;BME280;7622;42.724;23.250;2024-02-04T02:51:25;94952.50;;;7.88;100.00
15050;BME280;7622;42.724;23.250;2024-02-04T02:53:52;94952.50;;;7.88;100.00
15050;BME280;7622;42.724;23.250;2024-02-04T02:56:19;94952.50;;;7.88;100.00
15050;BME280;7622;42.724;23.250;2024-02-04T02:58:45;94955.44;;;7.84;100.00
15050;BME280;7622;42.724;23.250;2024-02-04T03:01:13;94946.97;;;7.82;100.00
15050;BME280;7622;42.724;23.250;2024-02-04T03:03:40;94954.16;;;7.89;100.00
15050;BME280;7622;42.724;23.250;2024-02-04T03:06:07;94947.69;;;7.95;100.00
15050;BME280;7622;42.724;23.250;2024-02-04T03:08:34;94942.97;;;7.89;100.00
15050;BME280;7622;42.724;23.250;2024-02-04T03:11:02;94948.97;;;7.89;100.00
15050;BME280;7622;42.724;23.250;2024-02-04T03:13:32;94950.38;;;7.94;100.00
15050;BME280;7622;42.724;23.250;2024-02-04T03:16:00;94943.78;;;7.89;100.00
15050;BME280;7622;42.724;23.250;2024-02-04T03:18:28;94942.19;;;7.77;100.00
15050;BME280;7622;42.724;23.250;2024-02-04T03:20:55;94956.38;;;7.94;100.00
15050;BME280;7622;42.724;23.250;2024-02-04T03:23:22;94952.03;;;7.95;100.00
15050;BME280;7622;42.724;23.250;2024-02-04T03:25:48;94954.25;;;7.99;100.00
15050;BME280;7622;42.724;23.250;2024-02-04T03:28:15;94957.06;;;7.96;100.00
15050;BME280;7622;42.724;23.250;2024-02-04T03:30:42;94958.84;;;7.96;100.00
15050;BME280;7622;42.724;23.250;2024-02-04T03:33:08;94945.28;;;8.03;100.00
15050;BME280;7622;42.724;23.250;2024-02-04T03:35:37;94943.09;;;7.99;100.00
15050;BME280;7622;42.724;23.250;2024-02-04T03:38:03;94947.22;;;7.90;100.00
15050;BME280;7622;42.724;23.250;2024-02-04T03:40:30;94928.44;;;7.77;100.00
15050;BME280;7622;42.724;23.250;2024-02-04T03:42:57;94929.59;;;7.95;100.00
15050;BME280;7622;42.724;23.250;2024-02-04T03:45:23;94920.53;;;7.89;100.00
15050;BME280;7622;42.724;23.250;2024-02-04T03:47:50;94933.22;;;7.93;100.00
15050;BME280;7622;42.724;23.250;2024-02-04T03:50:17;94917.56;;;8.05;100.00
15050;BME280;7622;42.724;23.250;2024-02-04T03:52:44;94922.03;;;8.03;100.00
15050;BME280;7622;42.724;23.250;2024-02-04T03:55:10;94924.28;;;7.97;100.00
15050;BME280;7622;42.724;23.250;2024-02-04T03:57:37;94930.53;;;7.94;100.00
15050;BME280;7622;42.724;23.250;2024-02-04T04:00:06;94938.41;;;7.93;100.00
15050;BME280;7622;42.724;23.250;2024-02-04T04:02:33;94936.63;;;7.93;100.00
15050;BME280;7622;42.724;23.250;2024-02-04T04:05:00;94939.72;;;7.87;100.00
15050;BME280;7622;42.724;23.250;2024-02-04T04:07:26;94923.94;;;7.90;100.00
15050;BME280;7622;42.724;23.250;2024-02-04T04:09:54;94923.94;;;7.90;100.00
15050;BME280;7622;42.724;23.250;2024-02-04T04:12:22;94929.81;;;7.92;100.00
15050;BME280;7622;42.724;23.250;2024-02-04T04:14:52;94930.19;;;7.87;100.00
15050;BME280;7622;42.724;23.250;2024-02-04T04:17:20;94924.41;;;7.95;100.00
15050;BME280;7622;42.724;23.250;2024-02-04T04:19:47;94921.06;;;8.15;100.00
15050;BME280;7622;42.724;23.250;2024-02-04T04:22:13;94911.56;;;8.05;100.00
15050;BME280;7622;42.724;23.250;2024-02-04T04:24:40;94927.91;;;8.05;100.00
15050;BME280;7622;42.724;23.250;2024-02-04T04:27:08;94935.44;;;7.97;100.00
15050;BME280;7622;42.724;23.250;2024-02-04T04:29:35;94946.72;;;8.07;100.00
15050;BME280;7622;42.724;23.250;2024-02-04T04:32:02;94948.38;;;7.97;100.00
15050;BME280;7622;42.724;23.250;2024-02-04T04:34:29;94937.41;;;8.05;100.00
15050;BME280;7622;42.724;23.250;2024-02-04T04:36:55;94930.94;;;8.10;100.00
15050;BME280;7622;42.724;23.250;2024-02-04T04:39:22;94938.69;;;8.21;100.00
15050;BME280;7622;42.724;23.250;2024-02-04T04:41:50;94944.25;;;8.06;100.00
15050;BME280;7622;42.724;23.250;2024-02-04T04:44:22;94928.72;;;8.06;100.00
15050;BME280;7622;42.724;23.250;2024-02-04T04:46:50;94928.72;;;8.06;100.00
15050;BME280;7622;42.724;23.250;2024-02-04T04:49:17;94929.88;;;8.13;100.00
15050;BME280;7622;42.724;23.250;2024-02-04T04:51:44;94927.41;;;8.11;100.00
15050;BME280;7622;42.724;23.250;2024-02-04T04:54:13;94934.94;;;8.14;100.00
15050;BME280;7622;42.724;23.250;2024-02-04T04:56:40;94933.03;;;8.16;100.00
15050;BME280;7622;42.724;23.250;2024-02-04T04:59:09;94927.19;;;8.14;100.00
15050;BME280;7622;42.724;23.250;2024-02-04T05:01:37;94938.09;;;8.18;100.00
15050;BME280;7622;42.724;23.250;2024-02-04T05:04:04;94941.00;;;8.24;100.00
15050;BME280;7622;42.724;23.250;2024-02-04T05:06:30;94936.31;;;8.18;100.00
15050;BME280;7622;42.724;23.250;2024-02-04T05:08:57;94926.69;;;8.09;100.00
15050;BME280;7622;42.724;23.250;2024-02-04T05:11:24;94938.03;;;8.08;100.00
15050;BME280;7622;42.724;23.250;2024-02-04T05:13:51;94928.63;;;7.96;100.00
15050;BME280;7622;42.724;23.250;2024-02-04T05:16:18;94930.53;;;7.94;100.00
15050;BME280;7622;42.724;23.250;2024-02-04T05:18:46;94923.09;;;8.01;100.00
15050;BME280;7622;42.724;23.250;2024-02-04T05:21:13;94930.97;;;7.99;100.00
15050;BME280;7622;42.724;23.250;2024-02-04T05:23:39;94932.13;;;8.06;100.00
15050;BME280;7622;42.724;23.250;2024-02-04T05:26:07;94944.25;;;8.06;100.00
15050;BME280;7622;42.724;23.250;2024-02-04T05:28:34;94950.81;;;8.10;100.00
15050;BME280;7622;42.724;23.250;2024-02-04T05:31:01;94944.34;;;8.15;100.00
15050;BME280;7622;42.724;23.250;2024-02-04T05:33:28;94957.13;;;8.17;100.00
15050;BME280;7622;42.724;23.250;2024-02-04T05:35:56;94948.53;;;8.27;100.00
15050;BME280;7622;42.724;23.250;2024-02-04T05:38:23;94936.31;;;8.29;100.00
15050;BME280;7622;42.724;23.250;2024-02-04T05:40:50;94935.38;;;8.30;100.00
15050;BME280;7622;42.724;23.250;2024-02-04T05:43:16;94945.94;;;8.27;100.00
15050;BME280;7622;42.724;23.250;2024-02-04T05:45:43;94948.38;;;8.08;100.00
15050;BME280;7622;42.724;23.250;2024-02-04T05:48:10;94952.88;;;7.95;100.00
15050;BME280;7622;42.724;23.250;2024-02-04T05:50:37;94931.03;;;7.66;100.00
15050;BME280;7622;42.724;23.250;2024-02-04T05:53:05;94947.81;;;7.71;100.00
15050;BME280;7622;42.724;23.250;2024-02-04T05:55:31;94961.34;;;7.64;100.00
15050;BME280;7622;42.724;23.250;2024-02-04T05:57:58;94969.09;;;7.64;100.00
15050;BME280;7622;42.724;23.250;2024-02-04T06:00:26;94970.88;;;7.52;100.00
15050;BME280;7622;42.724;23.250;2024-02-04T06:02:52;94970.75;;;7.65;100.00
15050;BME280;7622;42.724;23.250;2024-02-04T06:05:19;94971.69;;;7.53;100.00
15050;BME280;7622;42.724;23.250;2024-02-04T06:07:46;94967.44;;;7.40;100.00
15050;BME280;7622;42.724;23.250;2024-02-04T06:10:14;94960.03;;;7.47;100.00
15050;BME280;7622;42.724;23.250;2024-02-04T06:12:43;94968.19;;;7.54;100.00
15050;BME280;7622;42.724;23.250;2024-02-04T06:15:12;94965.09;;;7.48;100.00
15050;BME280;7622;42.724;23.250;2024-02-04T06:17:40;94968.41;;;7.39;100.00
15050;BME280;7622;42.724;23.250;2024-02-04T06:20:07;94963.34;;;7.38;100.00
15050;BME280;7622;42.724;23.250;2024-02-04T06:22:34;94968.03;;;7.44;100.00
15050;BME280;7622;42.724;23.250;2024-02-04T06:25:03;94978.53;;;7.54;100.00
15050;BME280;7622;42.724;23.250;2024-02-04T06:27:34;94986.50;;;7.50;100.00
15050;BME280;7622;42.724;23.250;2024-02-04T06:30:03;94982.00;;;7.75;100.00
15050;BME280;7622;42.724;23.250;2024-02-04T06:32:30;94988.16;;;7.74;100.00
15050;BME280;7622;42.724;23.250;2024-02-04T06:34:57;94991.16;;;7.90;100.00
15050;BME280;7622;42.724;23.250;2024-02-04T06:37:23;94986.22;;;7.98;100.00
15050;BME280;7622;42.724;23.250;2024-02-04T06:39:51;94987.38;;;8.16;100.00
15050;BME280;7622;42.724;23.250;2024-02-04T06:42:18;94992.19;;;8.32;100.00
15050;BME280;7622;42.724;23.250;2024-02-04T06:44:46;94992.53;;;8.39;100.00
15050;BME280;7622;42.724;23.250;2024-02-04T06:47:13;94989.78;;;8.51;100.00
15050;BME280;7622;42.724;23.250;2024-02-04T06:49:43;94983.97;;;8.59;100.00
15050;BME280;7622;42.724;23.250;2024-02-04T06:52:10;94982.03;;;8.72;100.00
15050;BME280;7622;42.724;23.250;2024-02-04T06:54:36;95008.03;;;8.82;100.00
15050;BME280;7622;42.724;23.250;2024-02-04T06:57:03;94993.06;;;8.85;100.00
15050;BME280;7622;42.724;23.250;2024-02-04T06:59:30;94992.09;;;8.86;100.00
15050;BME280;7622;42.724;23.250;2024-02-04T07:01:58;94997.00;;;9.00;100.00
15050;BME280;7622;42.724;23.250;2024-02-04T07:04:25;94992.31;;;8.94;100.00
15050;BME280;7622;42.724;23.250;2024-02-04T07:06:51;94984.31;;;8.97;100.00
15050;BME280;7622;42.724;23.250;2024-02-04T07:09:18;94998.63;;;9.01;100.00
15050;BME280;7622;42.724;23.250;2024-02-04T07:11:45;94984.53;;;9.15;100.00
15050;BME280;7622;42.724;23.250;2024-02-04T07:14:12;94988.28;;;9.83;100.00
15050;BME280;7622;42.724;23.250;2024-02-04T07:16:38;94998.34;;;9.67;100.00
15050;BME280;7622;42.724;23.250;2024-02-04T07:19:06;94991.84;;;9.52;100.00
15050;BME280;7622;42.724;23.250;2024-02-04T07:21:33;94983.56;;;9.58;100.00
15050;BME280;7622;42.724;23.250;2024-02-04T07:24:00;95004.09;;;9.70;100.00
15050;BME280;7622;42.724;23.250;2024-02-04T07:26:27;95003.84;;;9.73;100.00
15050;BME280;7622;42.724;23.250;2024-02-04T07:28:53;94990.69;;;9.65;100.00
15050;BME280;7622;42.724;23.250;2024-02-04T07:31:20;94997.56;;;9.76;100.00
15050;BME280;7622;42.724;23.250;2024-02-04T07:33:48;95000.78;;;9.68;100.00
15050;BME280;7622;42.724;23.250;2024-02-04T07:36:16;94994.53;;;9.71;100.00
15050;BME280;7622;42.724;23.250;2024-02-04T07:38:44;94996.31;;;9.70;100.00
15050;BME280;7622;42.724;23.250;2024-02-04T07:41:14;94998.59;;;9.64;100.00
15050;BME280;7622;42.724;23.250;2024-02-04T07:43:42;94987.81;;;9.68;100.00
15050;BME280;7622;42.724;23.250;2024-02-04T07:46:09;95001.41;;;9.81;100.00
15050;BME280;7622;42.724;23.250;2024-02-04T07:48:36;94994.88;;;9.87;100.00
15050;BME280;7622;42.724;23.250;2024-02-04T07:51:03;95002.59;;;10.08;100.00
15050;BME280;7622;42.724;23.250;2024-02-04T07:53:31;95002.88;;;10.74;100.00
15050;BME280;7622;42.724;23.250;2024-02-04T07:55:57;95018.03;;;11.45;100.00
15050;BME280;7622;42.724;23.250;2024-02-04T07:58:24;95013.31;;;11.78;93.22
15050;BME280;7622;42.724;23.250;2024-02-04T08:00:52;95011.78;;;11.85;90.78
15050;BME280;7622;42.724;23.250;2024-02-04T08:03:19;95015.59;;;12.28;86.49
15050;BME280;7622;42.724;23.250;2024-02-04T08:05:46;95014.31;;;12.04;86.47
15050;BME280;7622;42.724;23.250;2024-02-04T08:08:12;95014.97;;;11.79;87.16
15050;BME280;7622;42.724;23.250;2024-02-04T08:10:42;95009.59;;;11.34;92.78
15050;BME280;7622;42.724;23.250;2024-02-04T08:13:09;95002.06;;;11.87;90.19
15050;BME280;7622;42.724;23.250;2024-02-04T08:15:35;95004.19;;;12.01;85.96
15050;BME280;7622;42.724;23.250;2024-02-04T08:18:02;94995.00;;;12.52;85.65
15050;BME280;7622;42.724;23.250;2024-02-04T08:20:29;95004.94;;;12.66;81.96
15050;BME280;7622;42.724;23.250;2024-02-04T08:22:56;94988.94;;;13.14;78.48
15050;BME280;7622;42.724;23.250;2024-02-04T08:25:23;94981.38;;;13.29;76.09
15050;BME280;7622;42.724;23.250;2024-02-04T08:27:51;94988.78;;;13.59;74.46
15050;BME280;7622;42.724;23.250;2024-02-04T08:30:17;94990.25;;;13.88;72.42
15050;BME280;7622;42.724;23.250;2024-02-04T08:32:44;94991.69;;;13.30;74.80
15050;BME280;7622;42.724;23.250;2024-02-04T08:35:11;94998.00;;;12.75;79.32
15050;BME280;7622;42.724;23.250;2024-02-04T08:37:38;94961.41;;;12.04;84.21
15050;BME280;7622;42.724;23.250;2024-02-04T08:40:06;95005.03;;;12.02;88.92
15050;BME280;7622;42.724;23.250;2024-02-04T08:42:33;95007.84;;;11.71;94.85
15050;BME280;7622;42.724;23.250;2024-02-04T08:45:01;95007.34;;;11.49;98.73
15050;BME280;7622;42.724;23.250;2024-02-04T08:47:28;94992.72;;;11.38;100.00
15050;BME280;7622;42.724;23.250;2024-02-04T08:49:54;95002.19;;;11.29;100.00
15050;BME280;7622;42.724;23.250;2024-02-04T08:52:21;95006.88;;;10.97;100.00
15050;BME280;7622;42.724;23.250;2024-02-04T08:54:48;95007.97;;;10.85;100.00
15050;BME280;7622;42.724;23.250;2024-02-04T08:57:14;95009.31;;;10.89;100.00
15050;BME280;7622;42.724;23.250;2024-02-04T08:59:42;95020.50;;;10.60;100.00
15050;BME280;7622;42.724;23.250;2024-02-04T09:02:10;95013.94;;;10.47;100.00
15050;BME280;7622;42.724;23.250;2024-02-04T09:04:36;95022.66;;;10.36;100.00
15050;BME280;7622;42.724;23.250;2024-02-04T09:07:05;95017.72;;;10.33;100.00
15050;BME280;7622;42.724;23.250;2024-02-04T09:09:32;95030.88;;;10.41;100.00
15050;BME280;7622;42.724;23.250;2024-02-04T09:11:59;95026.75;;;10.39;100.00
15050;BME280;7622;42.724;23.250;2024-02-04T09:14:26;95019.94;;;10.47;100.00
15050;BME280;7622;42.724;23.250;2024-02-04T09:16:52;95016.75;;;10.24;100.00
15050;BME280;7622;42.724;23.250;2024-02-04T09:19:21;95007.19;;;10.25;100.00
15050;BME280;7622;42.724;23.250;2024-02-04T09:21:49;95004.75;;;10.33;100.00
15050;BME280;7622;42.724;23.250;2024-02-04T09:24:16;95013.06;;;10.27;100.00
15050;BME280;7622;42.724;23.250;2024-02-04T09:26:43;95028.59;;;10.17;100.00
15050;BME280;7622;42.724;23.250;2024-02-04T09:29:10;95030.31;;;10.38;100.00
15050;BME280;7622;42.724;23.250;2024-02-04T09:31:36;95030.00;;;10.31;100.00
15050;BME280;7622;42.724;23.250;2024-02-04T09:34:03;95034.16;;;10.43;100.00
15050;BME280;7622;42.724;23.250;2024-02-04T09:36:31;95030.91;;;10.60;100.00
15050;BME280;7622;42.724;23.250;2024-02-04T09:38:58;95039.06;;;10.46;100.00
15050;BME280;7622;42.724;23.250;2024-02-04T09:41:25;95039.94;;;10.56;100.00
15050;BME280;7622;42.724;23.250;2024-02-04T09:43:52;95044.59;;;10.62;100.00
15050;BME280;7622;42.724;23.250;2024-02-04T09:46:20;95046.78;;;10.57;100.00
15050;BME280;7622;42.724;23.250;2024-02-04T09:48:47;95039.94;;;10.66;100.00
15050;BME280;7622;42.724;23.250;2024-02-04T09:51:15;95043.91;;;10.70;100.00
15050;BME280;7622;42.724;23.250;2024-02-04T09:53:44;95031.59;;;10.62;100.00
15050;BME280;7622;42.724;23.250;2024-02-04T09:56:12;95028.72;;;10.56;100.00
15050;BME280;7622;42.724;23.250;2024-02-04T09:58:38;95042.25;;;10.59;100.00
15050;BME280;7622;42.724;23.250;2024-02-04T10:01:05;95032.56;;;10.81;100.00
15050;BME280;7622;42.724;23.250;2024-02-04T10:03:34;95045.72;;;11.08;100.00
15050;BME280;7622;42.724;23.250;2024-02-04T10:06:00;95035.03;;;11.30;100.00
15050;BME280;7622;42.724;23.250;2024-02-04T10:08:27;95034.22;;;11.11;100.00
15050;BME280;7622;42.724;23.250;2024-02-04T10:10:55;95036.28;;;10.97;100.00
15050;BME280;7622;42.724;23.250;2024-02-04T10:13:23;95038.59;;;10.91;100.00
15050;BME280;7622;42.724;23.250;2024-02-04T10:15:50;95031.88;;;10.79;100.00
15050;BME280;7622;42.724;23.250;2024-02-04T10:18:18;95032.59;;;10.90;100.00
15050;BME280;7622;42.724;23.250;2024-02-04T10:20:45;95040.22;;;10.82;100.00
15050;BME280;7622;42.724;23.250;2024-02-04T10:23:11;95040.94;;;10.84;100.00
15050;BME280;7622;42.724;23.250;2024-02-04T10:25:38;95033.13;;;10.84;100.00
15050;BME280;7622;42.724;23.250;2024-02-04T10:28:07;95031.06;;;10.69;100.00
15050;BME280;7622;42.724;23.250;2024-02-04T10:30:37;95022.84;;;10.63;100.00
15050;BME280;7622;42.724;23.250;2024-02-04T10:33:04;95024.34;;;10.56;100.00
15050;BME280;7622;42.724;23.250;2024-02-04T10:35:31;95011.19;;;10.48;100.00
15050;BME280;7622;42.724;23.250;2024-02-04T10:37:57;95020.50;;;10.60;100.00
15050;BME280;7622;42.724;23.250;2024-02-04T10:40:24;95028.59;;;10.77;100.00
15050;BME280;7622;42.724;23.250;2024-02-04T10:42:53;95021.75;;;10.76;100.00
15050;BME280;7622;42.724;23.250;2024-02-04T10:45:26;95023.25;;;10.69;100.00
15050;BME280;7622;42.724;23.250;2024-02-04T10:48:00;95019.97;;;10.66;100.00
15050;BME280;7622;42.724;23.250;2024-02-04T10:50:27;95017.13;;;10.70;100.00
15050;BME280;7622;42.724;23.250;2024-02-04T10:52:58;95015.59;;;10.57;100.00
15050;BME280;7622;42.724;23.250;2024-02-04T10:55:32;95021.34;;;10.71;100.00
15050;BME280;7622;42.724;23.250;2024-02-04T10:58:04;95015.97;;;10.53;100.00
15050;BME280;7622;42.724;23.250;2024-02-04T11:00:34;95005.34;;;10.65;100.00
15050;BME280;7622;42.724;23.250;2024-02-04T11:03:02;95008.22;;;10.62;100.00
15050;BME280;7622;42.724;23.250;2024-02-04T11:05:31;95009.16;;;10.61;100.00
15050;BME280;7622;42.724;23.250;2024-02-04T11:08:00;95009.03;;;10.63;100.00
15050;BME280;7622;42.724;23.250;2024-02-04T11:10:29;95027.09;;;10.84;100.00
15050;BME280;7622;42.724;23.250;2024-02-04T11:12:58;95019.56;;;10.81;100.00
15050;BME280;7622;42.724;23.250;2024-02-04T11:15:29;95016.81;;;10.73;100.00
15050;BME280;7622;42.724;23.250;2024-02-04T11:21:29;95005.75;;;10.61;100.00
15050;BME280;7622;42.724;23.250;2024-02-04T11:24:09;95006.97;;;10.66;100.00
15050;BME280;7622;42.724;23.250;2024-02-04T11:26:41;95013.41;;;10.72;100.00
15050;BME280;7622;42.724;23.250;2024-02-04T11:29:09;95008.06;;;10.74;100.00
15050;BME280;7622;42.724;23.250;2024-02-04T11:31:38;94992.47;;;10.93;100.00
15050;BME280;7622;42.724;23.250;2024-02-04T11:34:05;94988.38;;;11.00;100.00
15050;BME280;7622;42.724;23.250;2024-02-04T11:36:39;94987.28;;;10.93;100.00
15050;BME280;7622;42.724;23.250;2024-02-04T11:39:11;94998.13;;;10.98;100.00
15050;BME280;7622;42.724;23.250;2024-02-04T11:41:44;94994.00;;;10.95;100.00
15050;BME280;7622;42.724;23.250;2024-02-04T11:44:12;94986.88;;;11.17;100.00
15050;BME280;7622;42.724;23.250;2024-02-04T11:46:45;94990.16;;;11.09;100.00
15050;BME280;7622;42.724;23.250;2024-02-04T11:49:14;94983.28;;;11.27;100.00
15050;BME280;7622;42.724;23.250;2024-02-04T11:51:46;94980.22;;;11.51;100.00
15050;BME280;7622;42.724;23.250;2024-02-04T11:54:15;94964.56;;;11.80;100.00
15050;BME280;7622;42.724;23.250;2024-02-04T11:56:44;94959.16;;;12.18;100.00
15050;BME280;7622;42.724;23.250;2024-02-04T11:59:12;94953.91;;;12.28;100.00
15050;BME280;7622;42.724;23.250;2024-02-04T12:01:41;94948.47;;;12.39;100.00
15050;BME280;7622;42.724;23.250;2024-02-04T12:04:09;94930.31;;;12.30;98.04
15050;BME280;7622;42.724;23.250;2024-02-04T12:06:36;94931.06;;;12.40;95.10
15050;BME280;7622;42.724;23.250;2024-02-04T12:09:05;94955.13;;;12.69;92.05
15050;BME280;7622;42.724;23.250;2024-02-04T12:11:34;94952.28;;;12.62;92.81
15050;BME280;7622;42.724;23.250;2024-02-04T12:14:03;94946.69;;;12.40;94.15
15050;BME280;7622;42.724;23.250;2024-02-04T12:16:31;94953.34;;;12.24;96.14
15050;BME280;7622;42.724;23.250;2024-02-04T12:18:59;94953.03;;;12.37;97.31
15050;BME280;7622;42.724;23.250;2024-02-04T12:21:26;94937.91;;;12.41;95.42
15050;BME280;7622;42.724;23.250;2024-02-04T12:23:52;94935.59;;;12.38;96.30
15050;BME280;7622;42.724;23.250;2024-02-04T12:26:22;94945.22;;;12.55;92.45
15050;BME280;7622;42.724;23.250;2024-02-04T12:28:48;94929.13;;;12.42;92.38
15050;BME280;7622;42.724;23.250;2024-02-04T12:31:17;94928.38;;;12.67;90.70
15050;BME280;7622;42.724;23.250;2024-02-04T12:33:43;94934.03;;;12.45;94.69
15050;BME280;7622;42.724;23.250;2024-02-04T12:36:10;94914.38;;;12.68;91.39
15050;BME280;7622;42.724;23.250;2024-02-04T12:38:36;94904.47;;;12.89;90.08
15050;BME280;7622;42.724;23.250;2024-02-04T12:41:05;94907.13;;;12.97;88.77
15050;BME280;7622;42.724;23.250;2024-02-04T12:43:33;94898.66;;;13.13;85.53
15050;BME280;7622;42.724;23.250;2024-02-04T12:46:01;94905.13;;;12.91;89.59
15050;BME280;7622;42.724;23.250;2024-02-04T12:48:29;94893.84;;;13.09;87.46
15050;BME280;7622;42.724;23.250;2024-02-04T12:50:56;94905.22;;;13.08;86.07
15050;BME280;7622;42.724;23.250;2024-02-04T12:53:22;94897.94;;;13.11;84.48
15050;BME280;7622;42.724;23.250;2024-02-04T12:55:57;94907.81;;;12.99;87.93
15050;BME280;7622;42.724;23.250;2024-02-04T12:58:24;94903.63;;;13.07;88.20
15050;BME280;7622;42.724;23.250;2024-02-04T13:01:00;94911.34;;;13.34;84.27
15050;BME280;7622;42.724;23.250;2024-02-04T13:03:28;94912.84;;;13.45;83.02